createdAt,value
2018-09-08T00:00:24.710Z,15.90
2018-09-08T00:02:52.837Z,15.90
2018-09-08T00:05:20.987Z,15.90
2018-09-08T00:07:49.117Z,15.90
2018-09-08T00:10:17.246Z,15.90
2018-09-08T00:12:45.381Z,15.90
2018-09-08T00:15:19.021Z,15.90
2018-09-08T00:17:52.630Z,16.00
2018-09-08T00:20:26.097Z,16.00
2018-09-08T00:22:59.533Z,16.00
2018-09-08T00:25:33.134Z,16.00
2018-09-08T00:28:07.002Z,16.00
2018-09-08T00:30:35.141Z,16.00
2018-09-08T00:33:03.273Z,16.00
2018-09-08T00:35:31.416Z,16.00
2018-09-08T00:37:59.603Z,16.10
2018-09-08T00:40:27.742Z,16.10
2018-09-08T00:42:55.888Z,16.00
2018-09-08T00:45:24.054Z,16.00
2018-09-08T00:47:52.225Z,16.10
2018-09-08T00:50:20.395Z,16.10
2018-09-08T00:52:48.551Z,16.10
2018-09-08T00:55:16.703Z,16.10
2018-09-08T00:57:44.838Z,16.10
2018-09-08T01:00:12.965Z,16.10
2018-09-08T01:02:41.132Z,16.10
2018-09-08T01:05:09.259Z,16.10
2018-09-08T01:07:37.401Z,16.20
2018-09-08T01:10:05.522Z,16.20
2018-09-08T01:12:33.654Z,16.20
2018-09-08T01:15:02.062Z,16.20
2018-09-08T01:17:30.211Z,16.20
2018-09-08T01:19:58.322Z,16.20
2018-09-08T01:22:27.393Z,16.20
2018-09-08T01:24:55.518Z,16.20
2018-09-08T01:27:23.670Z,16.20
2018-09-08T01:29:51.827Z,16.20
2018-09-08T01:32:19.956Z,16.20
2018-09-08T01:34:48.091Z,16.10
2018-09-08T01:37:16.221Z,16.10
2018-09-08T01:39:44.378Z,16.10
2018-09-08T01:42:12.507Z,16.10
2018-09-08T01:44:40.638Z,16.10
2018-09-08T01:47:08.745Z,16.10
2018-09-08T01:49:36.878Z,16.10
2018-09-08T01:52:05.016Z,16.00
2018-09-08T01:54:33.150Z,16.00
2018-09-08T01:57:01.346Z,16.00
2018-09-08T01:59:29.508Z,16.00
2018-09-08T02:01:57.630Z,16.00
2018-09-08T02:04:25.766Z,15.90
2018-09-08T02:06:53.907Z,15.90
2018-09-08T02:09:22.078Z,15.90
2018-09-08T02:11:50.198Z,15.80
2018-09-08T02:14:18.342Z,15.80
2018-09-08T02:16:46.471Z,15.80
2018-09-08T02:19:14.610Z,15.80
2018-09-08T02:21:42.998Z,15.80
2018-09-08T02:24:11.133Z,15.80
2018-09-08T02:26:39.267Z,15.70
2018-09-08T02:29:07.403Z,15.70
2018-09-08T02:31:35.525Z,15.70
2018-09-08T02:34:03.659Z,15.70
2018-09-08T02:36:31.798Z,15.70
2018-09-08T02:38:59.918Z,15.60
2018-09-08T02:41:28.054Z,15.60
2018-09-08T02:43:56.178Z,15.60
2018-09-08T02:46:24.314Z,15.60
2018-09-08T02:48:52.437Z,15.60
2018-09-08T02:51:19.594Z,15.60
2018-09-08T02:53:46.746Z,15.60
2018-09-08T02:56:13.911Z,15.60
2018-09-08T02:58:41.053Z,15.60
2018-09-08T03:01:08.218Z,15.60
2018-09-08T03:03:35.370Z,15.50
2018-09-08T03:06:02.545Z,15.50
2018-09-08T03:08:29.769Z,15.50
2018-09-08T03:10:56.926Z,15.50
2018-09-08T03:13:24.077Z,15.50
2018-09-08T03:15:51.232Z,15.50
2018-09-08T03:18:18.394Z,15.50
2018-09-08T03:20:45.565Z,15.50
2018-09-08T03:23:12.739Z,15.50
2018-09-08T03:25:39.889Z,15.50
2018-09-08T03:28:07.058Z,15.40
2018-09-08T03:30:34.209Z,15.40
2018-09-08T03:33:01.377Z,15.40
2018-09-08T03:35:28.530Z,15.40
2018-09-08T03:37:55.689Z,15.40
2018-09-08T03:40:22.842Z,15.40
2018-09-08T03:42:50.005Z,15.40
2018-09-08T03:45:17.170Z,15.40
2018-09-08T03:47:44.330Z,15.40
2018-09-08T03:50:11.484Z,15.40
2018-09-08T03:52:38.679Z,15.40
2018-09-08T03:55:05.830Z,15.30
2018-09-08T03:57:33.001Z,15.30
2018-09-08T04:00:00.164Z,15.30
2018-09-08T04:02:27.329Z,15.30
2018-09-08T04:04:55.594Z,15.30
2018-09-08T04:07:23.738Z,15.30
2018-09-08T04:09:51.886Z,15.20
2018-09-08T04:12:20.137Z,15.20
2018-09-08T04:14:48.278Z,15.20
2018-09-08T04:17:16.431Z,15.20
2018-09-08T04:19:44.577Z,15.20
2018-09-08T04:22:12.740Z,15.20
2018-09-08T04:24:40.912Z,15.10
2018-09-08T04:27:09.060Z,15.10
2018-09-08T04:29:37.314Z,15.10
2018-09-08T04:32:05.377Z,15.10
2018-09-08T04:34:33.526Z,15.10
2018-09-08T04:37:01.666Z,15.10
2018-09-08T04:39:29.823Z,15.10
2018-09-08T04:41:57.975Z,15.00
2018-09-08T04:44:26.119Z,15.00
2018-09-08T04:46:54.262Z,15.00
2018-09-08T04:49:22.418Z,15.00
2018-09-08T04:51:50.684Z,15.00
2018-09-08T04:54:18.830Z,15.00
2018-09-08T04:56:46.963Z,15.00
2018-09-08T04:59:15.113Z,15.00
2018-09-08T05:01:43.226Z,15.00
2018-09-08T05:04:11.356Z,15.00
2018-09-08T05:06:39.485Z,15.00
2018-09-08T05:09:09.407Z,15.00
2018-09-08T05:11:37.459Z,14.90
2018-09-08T05:14:05.790Z,14.90
2018-09-08T05:16:33.918Z,14.90
2018-09-08T05:19:02.031Z,14.90
2018-09-08T05:21:30.164Z,14.90
2018-09-08T05:23:58.299Z,14.90
2018-09-08T05:26:26.425Z,14.90
2018-09-08T05:28:54.599Z,14.90
2018-09-08T05:31:22.737Z,14.80
2018-09-08T05:33:50.875Z,14.80
2018-09-08T05:36:19.047Z,14.80
2018-09-08T05:38:47.170Z,14.80
2018-09-08T05:41:15.317Z,14.80
2018-09-08T05:43:43.446Z,14.80
2018-09-08T05:46:11.594Z,14.80
2018-09-08T05:48:39.991Z,14.80
2018-09-08T05:51:08.087Z,14.80
2018-09-08T05:53:36.212Z,14.80
2018-09-08T05:56:04.435Z,14.80
2018-09-08T05:58:32.600Z,14.80
2018-09-08T06:01:00.771Z,14.80
2018-09-08T06:03:28.914Z,14.80
2018-09-08T06:05:57.071Z,14.80
2018-09-08T06:08:25.290Z,14.80
2018-09-08T06:10:53.441Z,14.80
2018-09-08T06:13:21.583Z,14.80
2018-09-08T06:15:50.382Z,14.80
2018-09-08T06:18:18.614Z,14.80
2018-09-08T06:20:46.718Z,14.80
2018-09-08T06:23:14.886Z,14.80
2018-09-08T06:25:43.036Z,14.80
2018-09-08T06:28:11.182Z,14.80
2018-09-08T06:30:39.321Z,14.80
2018-09-08T06:33:07.478Z,14.90
2018-09-08T06:35:35.634Z,14.90
2018-09-08T06:38:03.795Z,14.90
2018-09-08T06:40:31.942Z,14.90
2018-09-08T06:43:00.100Z,15.00
2018-09-08T06:45:28.262Z,15.00
2018-09-08T06:47:56.448Z,15.10
2018-09-08T06:50:24.589Z,15.10
2018-09-08T06:52:52.742Z,15.20
2018-09-08T06:55:20.964Z,15.30
2018-09-08T06:57:49.132Z,15.30
2018-09-08T07:00:17.291Z,15.40
2018-09-08T07:02:45.442Z,15.50
2018-09-08T07:05:13.586Z,15.50
2018-09-08T07:07:41.737Z,15.60
2018-09-08T07:10:09.881Z,15.60
2018-09-08T07:12:38.097Z,15.70
2018-09-08T07:15:06.308Z,15.70
2018-09-08T07:17:34.414Z,15.90
2018-09-08T07:20:02.571Z,16.00
2018-09-08T07:22:30.752Z,16.00
2018-09-08T07:24:58.979Z,16.10
2018-09-08T07:27:27.045Z,16.10
2018-09-08T07:29:55.208Z,16.10
2018-09-08T07:32:23.350Z,16.10
2018-09-08T07:34:51.593Z,16.10
2018-09-08T07:37:19.772Z,16.20
2018-09-08T07:39:47.891Z,16.20
2018-09-08T07:42:16.034Z,16.20
2018-09-08T07:44:44.183Z,16.30
2018-09-08T07:47:12.330Z,16.40
2018-09-08T07:49:40.466Z,16.40
2018-09-08T07:52:08.626Z,16.40
2018-09-08T07:54:36.788Z,16.50
2018-09-08T07:57:05.171Z,16.50
2018-09-08T07:59:33.326Z,16.60
2018-09-08T08:02:01.534Z,16.60
2018-09-08T08:04:29.646Z,16.60
2018-09-08T08:06:57.855Z,16.60
2018-09-08T08:09:26.016Z,16.70
2018-09-08T08:11:54.158Z,16.80
2018-09-08T08:14:22.332Z,16.90
2018-09-08T08:16:50.470Z,16.90
2018-09-08T08:19:18.626Z,17.00
2018-09-08T08:21:46.774Z,17.10
2018-09-08T08:24:14.959Z,17.20
2018-09-08T08:26:43.106Z,17.20
2018-09-08T08:29:11.244Z,17.30
2018-09-08T08:31:39.400Z,17.40
2018-09-08T08:34:07.544Z,17.50
2018-09-08T08:36:35.694Z,17.60
2018-09-08T08:39:03.999Z,17.70
2018-09-08T08:41:32.149Z,17.80
2018-09-08T08:44:00.300Z,17.80
2018-09-08T08:46:28.469Z,17.90
2018-09-08T08:48:56.621Z,18.00
2018-09-08T08:51:36.039Z,18.10
2018-09-08T08:54:13.358Z,18.10
2018-09-08T08:56:41.506Z,18.20
2018-09-08T08:59:09.662Z,18.30
2018-09-08T09:01:38.007Z,18.30
2018-09-08T09:04:06.237Z,18.40
2018-09-08T09:06:34.910Z,18.40
2018-09-08T09:09:03.048Z,18.40
2018-09-08T09:11:31.185Z,18.50
2018-09-08T09:13:59.328Z,18.50
2018-09-08T09:16:27.470Z,18.60
2018-09-08T09:19:07.154Z,18.60
2018-09-08T09:21:46.921Z,18.70
2018-09-08T09:24:26.970Z,18.70
2018-09-08T09:26:54.573Z,18.80
2018-09-08T09:29:22.722Z,18.80
2018-09-08T09:31:51.038Z,18.90
2018-09-08T09:34:19.173Z,18.90
2018-09-08T09:36:47.303Z,19.00
2018-09-08T09:39:15.429Z,19.00
2018-09-08T09:41:43.563Z,19.10
2018-09-08T09:44:12.323Z,19.10
2018-09-08T09:46:40.655Z,19.20
2018-09-08T09:49:08.789Z,19.20
2018-09-08T09:51:36.910Z,19.20
2018-09-08T09:54:05.050Z,19.30
2018-09-08T09:56:33.222Z,19.30
2018-09-08T09:59:01.390Z,19.40
2018-09-08T10:01:34.823Z,19.40
2018-09-08T10:04:02.977Z,19.50
2018-09-08T10:06:31.175Z,19.50
2018-09-08T10:08:59.450Z,19.50
2018-09-08T10:11:27.591Z,19.60
2018-09-08T10:13:55.762Z,19.60
2018-09-08T10:16:23.943Z,19.60
2018-09-08T10:18:52.098Z,19.60
2018-09-08T10:21:20.251Z,19.60
2018-09-08T10:24:04.342Z,19.60
2018-09-08T10:26:16.560Z,19.60
2018-09-08T10:28:44.685Z,19.60
2018-09-08T10:31:12.890Z,19.60
2018-09-08T10:33:41.026Z,19.60
2018-09-08T10:36:09.311Z,19.70
2018-09-08T10:38:37.451Z,19.70
2018-09-08T10:41:05.659Z,19.70
2018-09-08T10:43:33.850Z,19.80
2018-09-08T10:46:02.103Z,19.80
2018-09-08T10:48:30.182Z,19.80
2018-09-08T10:51:13.291Z,19.80
2018-09-08T10:53:41.437Z,19.80
2018-09-08T10:56:09.586Z,19.80
2018-09-08T10:58:37.727Z,19.80
2018-09-08T11:01:05.874Z,19.80
2018-09-08T11:03:34.014Z,19.80
2018-09-08T11:06:02.153Z,19.70
2018-09-08T11:08:30.307Z,19.70
2018-09-08T11:10:58.536Z,19.70
2018-09-08T11:13:26.675Z,19.70
2018-09-08T11:15:54.882Z,19.70
2018-09-08T11:18:22.954Z,19.70
2018-09-08T11:20:51.111Z,19.70
2018-09-08T11:23:19.246Z,19.70
2018-09-08T11:25:47.398Z,19.70
2018-09-08T11:28:15.543Z,19.70
2018-09-08T11:30:43.755Z,19.60
2018-09-08T11:33:11.834Z,19.70
2018-09-08T11:35:39.981Z,19.80
2018-09-08T11:38:08.320Z,19.80
2018-09-08T11:40:36.399Z,19.90
2018-09-08T11:43:04.817Z,19.90
2018-09-08T11:45:32.971Z,19.90
2018-09-08T11:48:01.120Z,20.00
2018-09-08T11:50:29.289Z,20.00
2018-09-08T11:52:57.584Z,20.00
2018-09-08T11:55:25.744Z,20.10
2018-09-08T11:57:53.895Z,20.10
2018-09-08T12:00:22.415Z,20.10
2018-09-08T12:02:50.575Z,20.10
2018-09-08T12:05:18.749Z,20.20
2018-09-08T12:07:46.959Z,20.20
2018-09-08T12:10:15.106Z,20.20
2018-09-08T12:12:43.255Z,20.20
2018-09-08T12:15:11.414Z,20.20
2018-09-08T12:17:39.604Z,20.20
2018-09-08T12:20:07.856Z,20.20
2018-09-08T12:22:36.005Z,20.20
2018-09-08T12:25:04.170Z,20.10
2018-09-08T12:27:32.434Z,20.10
2018-09-08T12:30:00.586Z,20.10
2018-09-08T12:32:28.817Z,20.10
2018-09-08T12:34:57.015Z,20.10
2018-09-08T12:37:25.157Z,20.10
2018-09-08T12:39:53.347Z,20.10
2018-09-08T12:42:21.490Z,20.10
2018-09-08T12:44:49.690Z,20.20
2018-09-08T12:47:17.851Z,20.20
2018-09-08T12:49:46.034Z,20.10
2018-09-08T12:52:14.267Z,20.10
2018-09-08T12:54:42.423Z,20.10
2018-09-08T12:57:10.604Z,20.10
2018-09-08T12:59:38.794Z,20.10
2018-09-08T13:02:06.959Z,20.10
2018-09-08T13:04:35.338Z,20.10
2018-09-08T13:07:03.538Z,20.20
2018-09-08T13:09:31.742Z,20.20
2018-09-08T13:11:59.886Z,20.20
2018-09-08T13:14:28.093Z,20.20
2018-09-08T13:16:56.242Z,20.20
2018-09-08T13:19:24.463Z,20.20
2018-09-08T13:21:52.566Z,20.20
2018-09-08T13:24:20.727Z,20.20
2018-09-08T13:26:48.862Z,20.30
2018-09-08T13:29:17.002Z,20.30
2018-09-08T13:31:45.158Z,20.20
2018-09-08T13:34:13.291Z,20.30
2018-09-08T13:36:41.446Z,20.30
2018-09-08T13:39:09.923Z,20.30
2018-09-08T13:41:38.136Z,20.30
2018-09-08T13:44:06.293Z,20.30
2018-09-08T13:46:34.453Z,20.30
2018-09-08T13:49:02.601Z,20.30
2018-09-08T13:51:30.766Z,20.40
2018-09-08T13:53:58.922Z,20.40
2018-09-08T13:56:27.086Z,20.40
2018-09-08T13:58:55.226Z,20.40
2018-09-08T14:01:23.397Z,20.40
2018-09-08T14:03:51.599Z,20.40
2018-09-08T14:06:19.766Z,20.40
2018-09-08T14:08:47.934Z,20.50
2018-09-08T14:11:16.092Z,20.50
2018-09-08T14:13:44.263Z,20.40
2018-09-08T14:16:12.426Z,20.40
2018-09-08T14:18:40.593Z,20.40
2018-09-08T14:21:08.776Z,20.40
2018-09-08T14:23:36.970Z,20.40
2018-09-08T14:26:05.170Z,20.40
2018-09-08T14:28:33.406Z,20.40
2018-09-08T14:31:01.498Z,20.40
2018-09-08T14:33:29.661Z,20.50
2018-09-08T14:35:57.959Z,20.40
2018-09-08T14:38:26.357Z,20.50
2018-09-08T14:40:54.494Z,20.50
2018-09-08T14:43:22.659Z,20.50
2018-09-08T14:45:51.071Z,20.50
2018-09-08T14:48:19.231Z,20.40
2018-09-08T14:50:47.396Z,20.50
2018-09-08T14:53:15.571Z,20.50
2018-09-08T14:55:43.731Z,20.40
2018-09-08T14:58:11.880Z,20.50
2018-09-08T15:00:40.110Z,20.40
2018-09-08T15:03:08.386Z,20.50
2018-09-08T15:05:36.527Z,20.50
2018-09-08T15:08:04.674Z,20.50
2018-09-08T15:10:32.910Z,20.50
2018-09-08T15:13:01.077Z,20.50
2018-09-08T15:15:29.210Z,20.50
2018-09-08T15:17:57.354Z,20.50
2018-09-08T15:20:25.501Z,20.50
2018-09-08T15:22:53.651Z,20.50
2018-09-08T15:25:21.806Z,20.50
2018-09-08T15:27:49.959Z,20.50
2018-09-08T15:30:18.295Z,20.50
2018-09-08T15:32:46.483Z,20.50
2018-09-08T15:35:14.733Z,20.50
2018-09-08T15:37:42.854Z,20.50
2018-09-08T15:40:11.029Z,20.50
2018-09-08T15:42:39.135Z,20.50
2018-09-08T15:45:07.317Z,20.50
2018-09-08T15:47:35.451Z,20.50
2018-09-08T15:50:03.588Z,20.50
2018-09-08T15:52:31.791Z,20.40
2018-09-08T15:54:59.929Z,20.40
2018-09-08T15:57:28.085Z,20.40
2018-09-08T15:59:56.262Z,20.40
2018-09-08T16:02:24.412Z,20.40
2018-09-08T16:04:52.554Z,20.40
2018-09-08T16:07:20.767Z,20.40
2018-09-08T16:09:48.932Z,20.40
2018-09-08T16:12:17.104Z,20.40
2018-09-08T16:14:45.275Z,20.40
2018-09-08T16:17:13.486Z,20.30
2018-09-08T16:19:41.691Z,20.40
2018-09-08T16:22:09.898Z,20.30
2018-09-08T16:24:38.071Z,20.30
2018-09-08T16:27:06.230Z,20.40
2018-09-08T16:29:34.474Z,20.30
2018-09-08T16:32:02.645Z,20.40
2018-09-08T16:34:30.806Z,20.30
2018-09-08T16:36:58.968Z,20.30
2018-09-08T16:39:27.142Z,20.30
2018-09-08T16:41:55.303Z,20.30
2018-09-08T16:44:23.470Z,20.30
2018-09-08T16:46:51.653Z,20.30
2018-09-08T16:49:19.910Z,20.30
2018-09-08T16:51:48.087Z,20.30
2018-09-08T16:54:16.278Z,20.30
2018-09-08T16:56:44.418Z,20.30
2018-09-08T16:59:12.594Z,20.30
2018-09-08T17:01:40.896Z,20.30
2018-09-08T17:04:09.189Z,20.30
2018-09-08T17:06:37.386Z,20.30
2018-09-08T17:09:07.132Z,20.30
2018-09-08T17:11:35.722Z,20.30
2018-09-08T17:14:03.887Z,20.30
2018-09-08T17:16:32.129Z,20.20
2018-09-08T17:19:00.431Z,20.20
2018-09-08T17:21:28.609Z,20.20
2018-09-08T17:23:56.822Z,20.20
2018-09-08T17:26:25.053Z,20.20
2018-09-08T17:28:53.216Z,20.20
2018-09-08T17:31:21.389Z,20.20
2018-09-08T17:33:49.923Z,20.20
2018-09-08T17:36:18.123Z,20.20
2018-09-08T17:38:46.315Z,20.10
2018-09-08T17:41:14.461Z,20.10
2018-09-08T17:43:42.630Z,20.10
2018-09-08T17:46:10.777Z,20.10
2018-09-08T17:48:39.177Z,20.10
2018-09-08T17:51:07.321Z,20.00
2018-09-08T17:53:35.478Z,20.00
2018-09-08T17:56:03.615Z,20.00
2018-09-08T17:58:31.845Z,20.00
2018-09-08T18:00:59.906Z,20.00
2018-09-08T18:03:28.066Z,20.00
2018-09-08T18:05:56.255Z,19.90
2018-09-08T18:08:26.346Z,19.90
2018-09-08T18:10:55.020Z,19.90
2018-09-08T18:13:24.153Z,19.90
2018-09-08T18:15:52.447Z,19.90
2018-09-08T18:18:20.982Z,19.90
2018-09-08T18:20:49.141Z,19.80
2018-09-08T18:23:17.318Z,19.80
2018-09-08T18:25:45.484Z,19.80
2018-09-08T18:28:13.719Z,19.80
2018-09-08T18:30:41.954Z,19.80
2018-09-08T18:33:10.150Z,19.70
2018-09-08T18:35:38.435Z,19.70
2018-09-08T18:38:06.575Z,19.70
2018-09-08T18:40:34.722Z,19.70
2018-09-08T18:43:02.867Z,19.70
2018-09-08T18:45:31.003Z,19.70
2018-09-08T18:47:59.138Z,19.60
2018-09-08T18:50:27.289Z,19.60
2018-09-08T18:52:55.430Z,19.60
2018-09-08T18:55:23.598Z,19.60
2018-09-08T18:57:51.766Z,19.60
2018-09-08T19:00:19.955Z,19.60
2018-09-08T19:02:48.117Z,19.50
2018-09-08T19:05:16.265Z,19.50
2018-09-08T19:07:44.426Z,19.50
2018-09-08T19:10:12.590Z,19.50
2018-09-08T19:12:40.739Z,19.50
2018-09-08T19:15:15.030Z,19.50
2018-09-08T19:17:43.363Z,19.40
2018-09-08T19:20:16.951Z,19.40
2018-09-08T19:22:45.121Z,19.40
2018-09-08T19:25:13.335Z,19.40
2018-09-08T19:27:41.498Z,19.30
2018-09-08T19:30:09.663Z,19.30
2018-09-08T19:32:37.850Z,19.30
2018-09-08T19:35:11.426Z,19.30
2018-09-08T19:37:39.603Z,19.20
2018-09-08T19:40:13.135Z,19.20
2018-09-08T19:42:41.336Z,19.20
2018-09-08T19:45:09.520Z,19.10
2018-09-08T19:47:42.893Z,19.10
2018-09-08T19:50:11.041Z,19.10
2018-09-08T19:52:44.623Z,19.00
2018-09-08T19:55:12.800Z,19.00
2018-09-08T19:57:46.478Z,19.00
2018-09-08T20:00:14.727Z,19.00
2018-09-08T20:02:42.903Z,19.00
2018-09-08T20:05:11.062Z,18.90
2018-09-08T20:07:39.231Z,18.90
2018-09-08T20:10:07.418Z,18.80
2018-09-08T20:12:35.594Z,18.80
2018-09-08T20:15:03.811Z,18.80
2018-09-08T20:17:32.099Z,18.80
2018-09-08T20:20:00.273Z,18.70
2018-09-08T20:22:28.444Z,18.70
2018-09-08T20:24:56.606Z,18.70
2018-09-08T20:27:24.814Z,18.70
2018-09-08T20:29:53.041Z,18.70
2018-09-08T20:32:21.225Z,18.60
2018-09-08T20:34:49.433Z,18.60
2018-09-08T20:37:17.571Z,18.60
2018-09-08T20:39:45.758Z,18.60
2018-09-08T20:42:13.935Z,18.60
2018-09-08T20:44:42.119Z,18.60
2018-09-08T20:47:10.307Z,18.60
2018-09-08T20:49:38.474Z,18.60
2018-09-08T20:52:06.776Z,18.60
2018-09-08T20:54:34.954Z,18.60
2018-09-08T20:57:03.114Z,18.60
2018-09-08T20:59:31.786Z,18.60
2018-09-08T21:02:00.103Z,18.60
2018-09-08T21:04:28.521Z,18.50
2018-09-08T21:06:56.654Z,18.60
2018-09-08T21:09:24.906Z,18.50
2018-09-08T21:11:53.058Z,18.50
2018-09-08T21:14:21.239Z,18.50
2018-09-08T21:16:49.885Z,18.50
2018-09-08T21:19:18.178Z,18.50
2018-09-08T21:21:46.334Z,18.50
2018-09-08T21:24:14.874Z,18.50
2018-09-08T21:26:43.411Z,18.50
2018-09-08T21:29:12.115Z,18.50
2018-09-08T21:31:40.274Z,18.50
2018-09-08T21:34:08.431Z,18.50
2018-09-08T21:36:36.589Z,18.50
2018-09-08T21:39:06.130Z,18.40
2018-09-08T21:41:34.394Z,18.40
2018-09-08T21:44:02.552Z,18.40
2018-09-08T21:46:30.711Z,18.40
2018-09-08T21:48:58.874Z,18.30
2018-09-08T21:51:27.040Z,18.30
2018-09-08T21:53:55.198Z,18.30
2018-09-08T21:56:23.406Z,18.30
2018-09-08T21:58:51.587Z,18.30
2018-09-08T22:01:25.151Z,18.30
2018-09-08T22:03:53.833Z,18.30
2018-09-08T22:06:22.426Z,18.30
2018-09-08T22:08:50.582Z,18.30
2018-09-08T22:11:18.750Z,18.20
2018-09-08T22:13:46.930Z,18.20
2018-09-08T22:16:15.104Z,18.20
2018-09-08T22:18:43.275Z,18.20
2018-09-08T22:21:11.466Z,18.20
2018-09-08T22:23:39.715Z,18.10
2018-09-08T22:26:07.896Z,18.10
2018-09-08T22:28:36.058Z,18.10
2018-09-08T22:31:04.227Z,18.10
2018-09-08T22:33:32.414Z,18.10
2018-09-08T22:36:00.580Z,18.10
2018-09-08T22:38:28.741Z,18.10
2018-09-08T22:40:56.898Z,18.10
2018-09-08T22:43:25.047Z,18.10
2018-09-08T22:45:53.206Z,18.10
2018-09-08T22:48:21.382Z,18.10
2018-09-08T22:50:49.605Z,18.00
2018-09-08T22:53:17.770Z,18.10
2018-09-08T22:55:45.955Z,18.10
2018-09-08T22:58:14.154Z,18.00
2018-09-08T23:00:42.304Z,18.00
2018-09-08T23:03:10.478Z,18.00
2018-09-08T23:05:38.725Z,18.00
2018-09-08T23:08:06.914Z,18.10
2018-09-08T23:10:35.075Z,18.10
2018-09-08T23:13:03.246Z,18.00
2018-09-08T23:15:31.417Z,18.10
2018-09-08T23:17:59.601Z,18.10
2018-09-08T23:20:27.782Z,18.00
2018-09-08T23:22:55.960Z,18.10
2018-09-08T23:25:24.126Z,18.10
2018-09-08T23:27:52.308Z,18.00
2018-09-08T23:30:20.487Z,18.00
2018-09-08T23:32:49.580Z,18.00
2018-09-08T23:35:17.814Z,18.00
2018-09-08T23:37:45.986Z,18.00
2018-09-08T23:40:14.171Z,18.00
2018-09-08T23:42:42.339Z,18.00
2018-09-08T23:45:10.507Z,18.00
2018-09-08T23:47:38.718Z,18.00
2018-09-08T23:50:06.888Z,18.00
2018-09-08T23:52:35.070Z,17.90
2018-09-08T23:55:03.236Z,17.90
2018-09-08T23:57:31.415Z,17.90
2018-09-08T23:59:59.587Z,17.90
